Time;durP1;ratioP1;P1;durP2;ratioP2;P2;SDS_P1;SDS_P2;PMS_P1;PMS_P2;Temp;Humidity;BMP_temperature;BMP_pressure;BME280_temperature;BME280_humidity;BME280_pressure;Samples;Min_cycle;Max_cycle;Signal;HPM_P1;HPM_P2
2022/03/15 00:00:53;;;;;;;;;;;;;;;10.50;50.93;101737.59;6110739;23;7788;-76
2022/03/15 00:03:20;;;;;;;;;;;;;;;10.53;49.93;101731.81;6085750;23;7031;-76
2022/03/15 00:05:45;;;;;;;;;;;;;;;10.56;50.17;101729.44;6085808;23;6903;-76
2022/03/15 00:08:12;;;;;;;;;;;;;;;10.59;50.37;101731.34;6110717;23;6783;-76
2022/03/15 00:10:38;;;;;;;;;;;;;;;10.65;50.12;101731.75;6086540;23;6779;-76
2022/03/15 00:13:06;;;;;;;;;;;;;;;10.66;50.58;101724.16;6113097;23;6782;-76
2022/03/15 00:15:32;;;;;;;;;;;;;;;10.66;50.12;101724.16;6110162;23;6985;-76
2022/03/15 00:17:59;;;;;;;;;;;;;;;10.67;50.38;101730.16;6109490;23;6791;-76
2022/03/15 00:20:25;;;;;;;;;;;;;;;10.65;49.59;101726.63;6111957;23;7164;-76
2022/03/15 00:22:55;;;;;;;;;;;;;;;10.62;50.34;101726.41;6109085;23;6994;-76
2022/03/15 00:25:21;;;;;;;;;;;;;;;10.57;49.58;101718.41;6110973;23;6944;-76
2022/03/15 00:27:52;;;;;;;;;;;;;;;10.52;49.87;101720.66;6110680;23;7121;-76
2022/03/15 00:30:21;;;;;;;;;;;;;;;10.48;50.06;101722.88;6110523;23;6790;-76
2022/03/15 00:32:48;;;;;;;;;;;;;;;10.42;50.04;101724.22;6109192;23;7229;-76
2022/03/15 00:35:17;;;;;;;;;;;;;;;10.39;50.14;101723.13;6110256;23;6985;-76
2022/03/15 00:37:47;;;;;;;;;;;;;;;10.36;50.19;101717.75;6110046;23;6787;-76
2022/03/15 00:40:14;;;;;;;;;;;;;;;10.31;50.26;101725.13;6112738;23;6865;-76
2022/03/15 00:42:40;;;;;;;;;;;;;;;10.26;50.14;101726.50;6109973;23;7090;-76
2022/03/15 00:45:07;;;;;;;;;;;;;;;10.21;50.68;101726.16;6110847;23;6791;-76
2022/03/15 00:47:33;;;;;;;;;;;;;;;10.15;50.89;101733.41;6108821;23;6965;-76
2022/03/15 00:49:59;;;;;;;;;;;;;;;10.10;50.19;101733.06;6108582;23;7074;-76
2022/03/15 00:52:25;;;;;;;;;;;;;;;10.05;50.10;101733.53;6109486;23;7339;-76
2022/03/15 00:54:51;;;;;;;;;;;;;;;9.99;50.76;101733.97;6112352;23;6775;-76
2022/03/15 00:57:18;;;;;;;;;;;;;;;9.93;50.54;101738.66;6110016;23;6783;-76
2022/03/15 00:59:43;;;;;;;;;;;;;;;9.85;50.07;101726.22;6109180;23;6875;-76
2022/03/15 01:02:09;;;;;;;;;;;;;;;9.79;50.77;101720.63;6107704;23;6893;-76
2022/03/15 01:04:35;;;;;;;;;;;;;;;9.77;51.14;101719.63;6112627;23;6977;-76
2022/03/15 01:07:00;;;;;;;;;;;;;;;9.72;51.33;101721.88;6112034;23;7047;-76
2022/03/15 01:09:26;;;;;;;;;;;;;;;9.68;51.37;101727.53;6108987;23;7277;-76
2022/03/15 01:11:52;;;;;;;;;;;;;;;9.66;51.65;101725.66;6111361;23;6767;-76
2022/03/15 01:14:17;;;;;;;;;;;;;;;9.64;51.49;101724.63;6086865;23;7360;-76
2022/03/15 01:16:43;;;;;;;;;;;;;;;9.64;50.82;101724.63;6134800;23;7738;-76
2022/03/15 01:19:09;;;;;;;;;;;;;;;9.63;51.02;101722.84;6135987;23;6916;-76
2022/03/15 01:21:37;;;;;;;;;;;;;;;9.62;50.90;101726.19;6109630;23;7200;-76
2022/03/15 01:24:10;;;;;;;;;;;;;;;9.61;51.50;101722.75;6113139;23;7008;-76
2022/03/15 01:26:39;;;;;;;;;;;;;;;9.59;51.09;101720.06;6110010;23;6767;-76
2022/03/15 01:29:06;;;;;;;;;;;;;;;9.60;51.40;101720.94;6111220;23;6960;-76
2022/03/15 01:31:32;;;;;;;;;;;;;;;9.58;51.13;101715.75;6108979;23;6999;-76
2022/03/15 01:33:58;;;;;;;;;;;;;;;9.59;52.24;101712.41;6109552;23;6974;-76
2022/03/15 01:36:23;;;;;;;;;;;;;;;9.59;51.44;101709.84;6110675;23;6965;-76
2022/03/15 01:38:52;;;;;;;;;;;;;;;9.61;50.86;101716.72;6110821;23;6954;-76
2022/03/15 01:41:19;;;;;;;;;;;;;;;9.61;52.09;101706.50;6112339;23;6782;-76
2022/03/15 01:43:47;;;;;;;;;;;;;;;9.61;52.23;101702.28;6108169;23;6941;-76
2022/03/15 01:46:14;;;;;;;;;;;;;;;9.62;51.48;101698.03;6087674;23;6950;-77
2022/03/15 01:48:40;;;;;;;;;;;;;;;9.63;51.87;101699.81;6131076;23;6791;-76
2022/03/15 01:51:07;;;;;;;;;;;;;;;9.63;52.15;101687.00;6109562;23;6783;-76
2022/03/15 01:53:33;;;;;;;;;;;;;;;9.63;52.54;101685.34;6133759;23;6923;-76
2022/03/15 01:56:01;;;;;;;;;;;;;;;9.64;52.29;101691.34;6111876;23;6835;-76
2022/03/15 01:58:28;;;;;;;;;;;;;;;9.65;52.10;101688.91;6111908;23;7102;-76
2022/03/15 02:00:54;;;;;;;;;;;;;;;9.66;52.36;101684.69;6084475;23;7006;-76
2022/03/15 02:03:20;;;;;;;;;;;;;;;9.68;52.53;101691.69;6111205;23;7840;-76
2022/03/15 02:05:46;;;;;;;;;;;;;;;9.71;52.42;101683.34;6111345;23;6790;-75
2022/03/15 02:08:15;;;;;;;;;;;;;;;9.72;52.33;101685.13;6110433;23;6846;-75
2022/03/15 02:10:43;;;;;;;;;;;;;;;9.74;51.84;101678.44;6109123;23;7181;-75
2022/03/15 02:13:10;;;;;;;;;;;;;;;9.76;51.91;101681.13;6110013;23;7046;-75
2022/03/15 02:15:37;;;;;;;;;;;;;;;9.78;51.71;101683.00;6110447;23;7194;-75
2022/03/15 02:18:04;;;;;;;;;;;;;;;9.80;52.19;101678.88;6110695;23;7604;-75
2022/03/15 02:20:31;;;;;;;;;;;;;;;9.83;51.39;101673.97;6110804;23;6961;-75
2022/03/15 02:22:57;;;;;;;;;;;;;;;9.85;51.71;101677.56;6110216;23;6775;-75
2022/03/15 02:25:26;;;;;;;;;;;;;;;9.88;52.47;101673.44;6109914;23;7219;-75
2022/03/15 02:27:52;;;;;;;;;;;;;;;9.90;52.01;101672.75;6110720;23;6864;-75
2022/03/15 02:30:21;;;;;;;;;;;;;;;9.92;51.58;101660.03;6108041;23;7062;-75
2022/03/15 02:32:48;;;;;;;;;;;;;;;9.95;51.72;101655.16;6107554;23;6795;-75
2022/03/15 02:35:15;;;;;;;;;;;;;;;9.97;51.55;101661.28;6112373;23;7045;-77
2022/03/15 02:37:41;;;;;;;;;;;;;;;10.00;51.71;101659.81;6107554;23;6783;-76
2022/03/15 02:40:08;;;;;;;;;;;;;;;10.02;52.04;101653.91;6109975;23;8026;-76
2022/03/15 02:42:35;;;;;;;;;;;;;;;10.04;52.23;101647.22;6107015;23;7579;-76
2022/03/15 02:45:01;;;;;;;;;;;;;;;10.05;51.54;101646.44;6110313;23;7033;-75
2022/03/15 02:47:27;;;;;;;;;;;;;;;10.06;52.12;101635.41;6084732;23;6787;-75
2022/03/15 02:49:53;;;;;;;;;;;;;;;10.05;51.52;101634.53;6112539;23;6778;-75
2022/03/15 02:52:20;;;;;;;;;;;;;;;10.06;52.27;101631.19;6108909;23;7030;-75
2022/03/15 02:54:46;;;;;;;;;;;;;;;10.05;52.26;101620.81;6111398;23;6779;-75
2022/03/15 02:57:12;;;;;;;;;;;;;;;10.07;51.53;101626.94;6109066;23;6786;-75
2022/03/15 02:59:43;;;;;;;;;;;;;;;10.09;52.28;101625.34;6110357;23;7792;-75
2022/03/15 03:02:08;;;;;;;;;;;;;;;10.09;51.47;101610.91;6111279;23;6783;-75
2022/03/15 03:04:34;;;;;;;;;;;;;;;10.11;51.50;101623.81;6117461;23;6774;-75
2022/03/15 03:07:02;;;;;;;;;;;;;;;10.10;51.83;101615.22;6112967;23;6787;-75
2022/03/15 03:09:29;;;;;;;;;;;;;;;10.10;51.74;101615.22;6139184;23;6945;-75
2022/03/15 03:11:58;;;;;;;;;;;;;;;10.11;51.19;101621.25;6112681;23;7082;-75
2022/03/15 03:14:25;;;;;;;;;;;;;;;10.12;52.34;101618.78;6117022;23;6986;-75
2022/03/15 03:16:51;;;;;;;;;;;;;;;10.14;51.92;101612.13;6116474;23;6953;-75
2022/03/15 03:19:17;;;;;;;;;;;;;;;10.16;52.15;101613.88;6117378;23;6865;-75
2022/03/15 03:21:43;;;;;;;;;;;;;;;10.18;52.22;101613.19;6113607;23;6795;-76
2022/03/15 03:24:09;;;;;;;;;;;;;;;10.19;51.05;101611.53;6116826;23;6795;-76
2022/03/15 03:26:39;;;;;;;;;;;;;;;10.21;51.67;101607.41;6067285;23;6982;-76
2022/03/15 03:29:11;;;;;;;;;;;;;;;10.22;51.73;101611.72;6116432;23;6778;-76
2022/03/15 03:31:39;;;;;;;;;;;;;;;10.23;51.90;101611.84;6115727;23;7058;-76
2022/03/15 03:34:06;;;;;;;;;;;;;;;10.24;51.52;101610.19;6115985;23;6866;-76
2022/03/15 03:36:36;;;;;;;;;;;;;;;10.24;51.01;101605.94;6115769;23;6911;-76
2022/03/15 03:39:07;;;;;;;;;;;;;;;10.26;51.89;101609.47;6092555;23;7060;-75
2022/03/15 03:41:33;;;;;;;;;;;;;;;10.27;51.62;101602.69;6116069;23;6783;-75
2022/03/15 03:43:59;;;;;;;;;;;;;;;10.28;51.13;101597.69;6113168;23;6775;-75
2022/03/15 03:46:24;;;;;;;;;;;;;;;10.28;51.75;101602.81;6112468;23;6770;-75
2022/03/15 03:48:50;;;;;;;;;;;;;;;10.26;50.99;101600.94;6114710;23;6783;-75
2022/03/15 03:51:18;;;;;;;;;;;;;;;10.25;51.11;101600.03;6113817;23;6916;-75
2022/03/15 03:53:44;;;;;;;;;;;;;;;10.25;51.69;101601.72;6115581;23;7078;-76
2022/03/15 03:56:10;;;;;;;;;;;;;;;10.24;51.09;101597.38;6117415;23;6870;-76
2022/03/15 03:58:35;;;;;;;;;;;;;;;10.22;52.01;101597.25;6115030;23;6766;-76
2022/03/15 04:01:02;;;;;;;;;;;;;;;10.23;51.81;101595.56;6114960;23;6767;-76
2022/03/15 04:03:33;;;;;;;;;;;;;;;10.23;51.48;101595.56;6136099;23;7013;-76
2022/03/15 04:06:02;;;;;;;;;;;;;;;10.23;52.00;101590.44;6112616;23;6854;-76
2022/03/15 04:08:28;;;;;;;;;;;;;;;10.26;51.80;101588.13;6112010;23;6874;-76
2022/03/15 04:10:54;;;;;;;;;;;;;;;10.26;52.27;101588.13;6109985;23;6894;-76
2022/03/15 04:13:19;;;;;;;;;;;;;;;10.28;52.06;101591.66;6111733;23;6854;-76
2022/03/15 04:15:46;;;;;;;;;;;;;;;10.29;51.74;101583.19;6111263;23;7188;-76
2022/03/15 04:18:12;;;;;;;;;;;;;;;10.30;51.84;101584.97;6112064;23;6901;-76
2022/03/15 04:20:40;;;;;;;;;;;;;;;10.32;52.06;101579.97;6112035;23;6988;-76
2022/03/15 04:23:06;;;;;;;;;;;;;;;10.33;51.88;101582.59;6110624;23;6965;-76
2022/03/15 04:25:32;;;;;;;;;;;;;;;10.34;51.64;101575.81;6087265;23;6981;-76
2022/03/15 04:28:00;;;;;;;;;;;;;;;10.36;51.34;101574.25;6107006;23;8077;-76
2022/03/15 04:30:32;;;;;;;;;;;;;;;10.36;51.49;101577.72;6111520;23;6854;-76
2022/03/15 04:32:58;;;;;;;;;;;;;;;10.37;51.18;101592.28;6108881;23;7252;-76
2022/03/15 04:35:25;;;;;;;;;;;;;;;10.37;51.18;101586.25;6137257;23;7274;-76
2022/03/15 04:37:52;;;;;;;;;;;;;;;10.36;51.96;101587.06;6113104;23;7086;-76
2022/03/15 04:40:19;;;;;;;;;;;;;;;10.34;51.80;101579.28;6113404;23;6923;-76
2022/03/15 04:42:45;;;;;;;;;;;;;;;10.33;51.14;101574.91;6110459;23;7322;-76
2022/03/15 04:45:12;;;;;;;;;;;;;;;10.32;51.71;101568.00;6113069;23;6787;-76
2022/03/15 04:47:39;;;;;;;;;;;;;;;10.33;51.43;101567.22;6111084;23;6791;-75
2022/03/15 04:50:05;;;;;;;;;;;;;;;10.32;51.21;101562.88;6110931;23;6786;-75
2022/03/15 04:52:31;;;;;;;;;;;;;;;10.31;52.00;101556.00;6112376;23;6865;-75
2022/03/15 04:54:57;;;;;;;;;;;;;;;10.32;51.80;101556.88;6112725;23;6977;-75
2022/03/15 04:57:23;;;;;;;;;;;;;;;10.32;51.41;101562.88;6113274;23;6842;-75
2022/03/15 04:59:48;;;;;;;;;;;;;;;10.31;51.94;101556.00;6133740;23;7034;-75
2022/03/15 05:02:14;;;;;;;;;;;;;;;10.33;51.25;101566.34;6110412;23;6782;-75
2022/03/15 05:04:40;;;;;;;;;;;;;;;10.32;51.79;101562.88;6134484;23;7266;-75
2022/03/15 05:07:05;;;;;;;;;;;;;;;10.32;51.75;101552.63;6113267;23;6775;-75
2022/03/15 05:09:31;;;;;;;;;;;;;;;10.32;51.11;101560.31;6112166;23;6774;-75
2022/03/15 05:11:58;;;;;;;;;;;;;;;10.34;51.73;101557.88;6085113;23;8095;-76
2022/03/15 05:14:24;;;;;;;;;;;;;;;10.33;51.16;101553.53;6109522;23;7130;-76
2022/03/15 05:16:50;;;;;;;;;;;;;;;10.34;51.83;101552.75;6110153;23;6782;-75
2022/03/15 05:19:16;;;;;;;;;;;;;;;10.34;51.80;101545.06;6110656;23;6775;-75
2022/03/15 05:21:42;;;;;;;;;;;;;;;10.34;51.63;101537.38;6113185;23;6945;-75
2022/03/15 05:24:07;;;;;;;;;;;;;;;10.35;51.34;101532.38;6113038;23;7282;-75
2022/03/15 05:26:33;;;;;;;;;;;;;;;10.36;52.27;101534.13;6112699;23;6974;-75
2022/03/15 05:28:59;;;;;;;;;;;;;;;10.35;51.65;101540.06;6113486;23;6932;-75
2022/03/15 05:31:26;;;;;;;;;;;;;;;10.36;51.41;101534.13;6112431;23;6834;-75
2022/03/15 05:33:52;;;;;;;;;;;;;;;10.36;52.15;101534.13;6088524;23;6787;-75
2022/03/15 05:36:19;;;;;;;;;;;;;;;10.37;51.48;101533.34;6113372;23;7035;-75
2022/03/15 05:38:44;;;;;;;;;;;;;;;10.37;51.44;101532.44;6114107;23;6779;-75
2022/03/15 05:41:10;;;;;;;;;;;;;;;10.38;51.57;101539.34;6113724;23;6838;-75
2022/03/15 05:43:37;;;;;;;;;;;;;;;10.38;51.23;101526.53;6111242;23;6766;-75
2022/03/15 05:46:03;;;;;;;;;;;;;;;10.39;51.87;101526.66;6113574;23;6779;-76
2022/03/15 05:48:29;;;;;;;;;;;;;;;10.39;51.72;101528.34;6114018;23;6786;-76
2022/03/15 05:50:55;;;;;;;;;;;;;;;10.40;51.77;101525.84;6109725;23;6842;-75
2022/03/15 05:53:20;;;;;;;;;;;;;;;10.42;52.20;101518.31;6086690;23;6783;-75
2022/03/15 05:55:46;;;;;;;;;;;;;;;10.44;52.08;101513.28;6114695;23;7120;-75
2022/03/15 05:58:14;;;;;;;;;;;;;;;10.44;52.04;101516.72;6112476;23;6850;-75
2022/03/15 06:00:42;;;;;;;;;;;;;;;10.45;52.06;101509.94;6111298;23;6804;-75
2022/03/15 06:03:11;;;;;;;;;;;;;;;10.46;51.71;101509.16;6113573;23;6937;-76
2022/03/15 06:05:38;;;;;;;;;;;;;;;10.48;51.46;101497.31;6112778;23;6855;-76
2022/03/15 06:08:04;;;;;;;;;;;;;;;10.47;51.67;101503.25;6112777;23;6787;-76
2022/03/15 06:10:30;;;;;;;;;;;;;;;10.48;52.29;101507.56;6112316;23;6771;-76
2022/03/15 06:12:57;;;;;;;;;;;;;;;10.50;51.86;101501.78;6112228;23;6858;-76
2022/03/15 06:15:23;;;;;;;;;;;;;;;10.53;51.70;101508.78;6111954;23;7005;-76
2022/03/15 06:17:56;;;;;;;;;;;;;;;10.55;52.06;101500.38;6113888;23;7104;-76
2022/03/15 06:20:25;;;;;;;;;;;;;;;10.60;52.01;101508.38;6113211;23;6787;-76
2022/03/15 06:22:51;;;;;;;;;;;;;;;10.63;51.83;101505.13;6112057;23;6782;-76
2022/03/15 06:25:17;;;;;;;;;;;;;;;10.65;52.24;101506.09;6089166;23;6775;-76
2022/03/15 06:27:43;;;;;;;;;;;;;;;10.67;52.10;101509.66;6111516;23;6779;-76
2022/03/15 06:30:12;;;;;;;;;;;;;;;10.70;51.72;101517.56;6112654;23;6945;-76
2022/03/15 06:32:38;;;;;;;;;;;;;;;10.72;52.04;101509.97;6111060;23;6866;-76
2022/03/15 06:35:07;;;;;;;;;;;;;;;10.75;52.00;101512.75;6111965;23;7286;-76
2022/03/15 06:37:46;;;;;;;;;;;;;;;10.76;52.31;101510.25;6113025;23;7001;-76
2022/03/15 06:40:17;;;;;;;;;;;;;;;10.79;52.12;101500.22;6111723;23;7204;-76
2022/03/15 06:42:43;;;;;;;;;;;;;;;10.84;51.97;101497.94;6109557;23;7348;-76
2022/03/15 06:45:10;;;;;;;;;;;;;;;10.87;51.31;101494.72;6112399;23;6947;-76
2022/03/15 06:47:37;;;;;;;;;;;;;;;10.90;51.65;101502.59;6113046;23;7078;-75
2022/03/15 06:50:08;;;;;;;;;;;;;;;10.92;51.50;101496.78;6114037;23;6787;-76
2022/03/15 06:52:35;;;;;;;;;;;;;;;10.96;51.70;101497.81;6090324;23;6782;-76
2022/03/15 06:55:01;;;;;;;;;;;;;;;11.00;51.74;101499.81;6115089;23;6786;-76
2022/03/15 06:57:27;;;;;;;;;;;;;;;11.05;51.39;101500.13;6114336;23;7006;-76
2022/03/15 06:59:56;;;;;;;;;;;;;;;11.09;51.44;101509.75;6114768;23;6826;-76
2022/03/15 07:02:21;;;;;;;;;;;;;;;11.11;51.43;101496.25;6113716;23;6790;-76
2022/03/15 07:04:47;;;;;;;;;;;;;;;11.17;51.77;101506.00;6089758;23;7098;-76
2022/03/15 07:07:13;;;;;;;;;;;;;;;11.22;51.48;101506.31;6116178;23;6924;-76
2022/03/15 07:09:38;;;;;;;;;;;;;;;11.27;51.32;101504.94;6114652;23;6778;-76
2022/03/15 07:12:04;;;;;;;;;;;;;;;11.32;51.52;101507.78;6138501;23;6978;-76
2022/03/15 07:14:30;;;;;;;;;;;;;;;11.36;51.76;101507.16;6114874;23;6759;-76
2022/03/15 07:16:56;;;;;;;;;;;;;;;11.39;51.72;101503.13;6088368;23;7050;-76
2022/03/15 07:19:22;;;;;;;;;;;;;;;11.45;51.60;101497.47;6112629;23;6766;-76
2022/03/15 07:21:47;;;;;;;;;;;;;;;11.49;51.46;101488.28;6111435;23;6845;-76
2022/03/15 07:24:13;;;;;;;;;;;;;;;11.56;51.72;101494.69;6112368;23;6771;-76
2022/03/15 07:26:39;;;;;;;;;;;;;;;11.62;51.57;101477.97;6087755;23;7031;-76
2022/03/15 07:29:04;;;;;;;;;;;;;;;11.67;51.55;101480.81;6138147;23;6837;-76
2022/03/15 07:31:30;;;;;;;;;;;;;;;11.70;50.96;101475.88;6110708;23;6842;-76
2022/03/15 07:33:56;;;;;;;;;;;;;;;11.78;51.71;101479.81;6113435;23;6846;-76
2022/03/15 07:36:22;;;;;;;;;;;;;;;11.85;51.29;101477.59;6110733;23;7026;-76
2022/03/15 07:38:49;;;;;;;;;;;;;;;11.91;51.04;101477.97;6111256;23;6771;-75
2022/03/15 07:41:16;;;;;;;;;;;;;;;11.97;50.71;101473.16;6113443;23;6950;-75
2022/03/15 07:43:43;;;;;;;;;;;;;;;12.01;50.90;101472.59;6113765;23;6937;-75
2022/03/15 07:46:09;;;;;;;;;;;;;;;12.05;51.14;101477.13;6113903;23;6775;-76
2022/03/15 07:48:34;;;;;;;;;;;;;;;12.10;51.38;101466.25;6137822;23;7827;-76
2022/03/15 07:51:00;;;;;;;;;;;;;;;12.16;51.05;101470.06;6113614;23;6837;-75
2022/03/15 07:53:26;;;;;;;;;;;;;;;12.23;50.72;101461.00;6114232;23;6758;-75
2022/03/15 07:55:52;;;;;;;;;;;;;;;12.29;50.84;101463.06;6114673;23;6858;-75
2022/03/15 07:58:18;;;;;;;;;;;;;;;12.33;50.35;101463.31;6111964;23;6766;-76
2022/03/15 08:00:46;;;;;;;;;;;;;;;12.39;50.45;101459.34;6112159;23;6854;-76
2022/03/15 08:03:12;;;;;;;;;;;;;;;12.43;50.38;101462.19;6113115;23;6775;-76
2022/03/15 08:05:37;;;;;;;;;;;;;;;12.48;50.30;101452.16;6113172;23;6763;-76
2022/03/15 08:08:07;;;;;;;;;;;;;;;12.52;49.83;101441.22;6113510;23;6766;-76
2022/03/15 08:10:32;;;;;;;;;;;;;;;12.57;49.95;101438.94;6113237;23;7526;-76
2022/03/15 08:12:58;;;;;;;;;;;;;;;12.61;50.41;101441.75;6113491;23;6770;-76
2022/03/15 08:15:24;;;;;;;;;;;;;;;12.68;50.59;101434.41;6113776;23;6932;-76
2022/03/15 08:17:49;;;;;;;;;;;;;;;12.72;49.93;101444.03;6112775;23;6791;-76
2022/03/15 08:20:18;;;;;;;;;;;;;;;12.75;50.16;101452.81;6114351;23;6966;-76
2022/03/15 08:22:44;;;;;;;;;;;;;;;12.77;50.35;101458.06;6111381;23;6806;-76
2022/03/15 08:25:10;;;;;;;;;;;;;;;12.78;50.44;101452.97;6111927;23;7089;-76
2022/03/15 08:27:36;;;;;;;;;;;;;;;12.78;50.25;101452.97;6111623;23;6850;-76
2022/03/15 08:30:04;;;;;;;;;;;;;;;12.80;49.77;101447.06;6111445;23;6862;-76
2022/03/15 08:32:29;;;;;;;;;;;;;;;12.81;49.78;101452.28;6112576;23;7002;-76
2022/03/15 08:34:55;;;;;;;;;;;;;;;12.84;50.48;101444.72;6136401;23;6969;-76
2022/03/15 08:37:21;;;;;;;;;;;;;;;12.88;50.00;101445.78;6113331;23;6940;-76
2022/03/15 08:39:47;;;;;;;;;;;;;;;12.91;50.04;101451.13;6114152;23;7002;-76
2022/03/15 08:42:13;;;;;;;;;;;;;;;12.94;50.23;101446.13;6113206;23;6853;-76
2022/03/15 08:44:39;;;;;;;;;;;;;;;12.99;50.04;101448.94;6114015;23;6850;-76
2022/03/15 08:47:04;;;;;;;;;;;;;;;13.04;49.77;101452.69;6113794;23;6782;-76
2022/03/15 08:49:30;;;;;;;;;;;;;;;13.06;49.74;101448.50;6113723;23;7843;-76
2022/03/15 08:51:55;;;;;;;;;;;;;;;13.07;50.32;101447.69;6112110;23;6877;-76
2022/03/15 08:54:22;;;;;;;;;;;;;;;13.02;49.80;101455.16;6110093;23;6828;-76
2022/03/15 08:56:49;;;;;;;;;;;;;;;12.93;50.85;101454.66;6112194;23;6883;-76
2022/03/15 08:59:15;;;;;;;;;;;;;;;12.82;51.00;101450.59;6112242;23;6790;-76
2022/03/15 09:01:42;;;;;;;;;;;;;;;12.73;51.04;101453.53;6087621;23;7032;-76
2022/03/15 09:04:08;;;;;;;;;;;;;;;12.67;51.69;101450.63;6114098;23;7209;-76
2022/03/15 09:06:34;;;;;;;;;;;;;;;12.62;51.45;101456.38;6113757;23;6866;-76
2022/03/15 09:09:00;;;;;;;;;;;;;;;12.53;51.90;101452.41;6113035;23;6782;-76
2022/03/15 09:11:32;;;;;;;;;;;;;;;12.42;51.91;101444.09;6111267;23;6981;-76
2022/03/15 09:13:58;;;;;;;;;;;;;;;12.35;52.56;101448.00;6137140;23;8045;-77
2022/03/15 09:16:25;;;;;;;;;;;;;;;12.30;53.08;101440.03;6088816;23;6862;-77
2022/03/15 09:18:51;;;;;;;;;;;;;;;12.28;53.38;101441.63;6113657;23;6861;-77
2022/03/15 09:21:18;;;;;;;;;;;;;;;12.27;53.16;101441.53;6113063;23;7075;-77
2022/03/15 09:23:44;;;;;;;;;;;;;;;12.25;53.62;101438.84;6114221;23;6774;-77
2022/03/15 09:26:11;;;;;;;;;;;;;;;12.23;53.20;101435.31;6112576;23;6960;-77
2022/03/15 09:28:37;;;;;;;;;;;;;;;12.25;54.05;101437.97;6137711;23;6775;-77
2022/03/15 09:31:04;;;;;;;;;;;;;;;12.28;53.88;101435.56;6113567;23;6775;-77
2022/03/15 09:33:30;;;;;;;;;;;;;;;12.32;54.36;101420.41;6112692;23;6787;-76
2022/03/15 09:35:56;;;;;;;;;;;;;;;12.37;54.46;101420.69;6138163;23;6853;-76
2022/03/15 09:38:23;;;;;;;;;;;;;;;12.43;54.72;101421.03;6113756;23;6787;-76
2022/03/15 09:40:52;;;;;;;;;;;;;;;12.48;54.25;101414.47;6112030;23;6801;-76
2022/03/15 09:43:23;;;;;;;;;;;;;;;12.53;54.17;101417.28;6087963;23;6975;-76
2022/03/15 09:45:51;;;;;;;;;;;;;;;12.58;54.55;101414.97;6112979;23;6862;-76
2022/03/15 09:48:23;;;;;;;;;;;;;;;12.60;53.62;101413.38;6088354;23;7083;-76
2022/03/15 09:50:51;;;;;;;;;;;;;;;12.62;53.80;101417.81;6113876;23;7107;-76
2022/03/15 09:53:19;;;;;;;;;;;;;;;12.68;54.28;101417.25;6088422;23;6775;-76
2022/03/15 09:55:46;;;;;;;;;;;;;;;12.73;53.90;101410.69;6136633;23;7006;-76
2022/03/15 09:58:20;;;;;;;;;;;;;;;12.79;54.56;101410.16;6088382;23;7904;-77
2022/03/15 10:00:55;;;;;;;;;;;;;;;12.87;54.90;101402.84;6090178;23;7088;-76
2022/03/15 10:03:21;;;;;;;;;;;;;;;12.90;54.19;101397.88;6112281;23;6783;-76
2022/03/15 10:05:49;;;;;;;;;;;;;;;12.96;54.06;101395.63;6115587;23;7124;-76
2022/03/15 10:08:20;;;;;;;;;;;;;;;13.04;54.52;101396.06;6113241;23;7049;-76
2022/03/15 10:10:52;;;;;;;;;;;;;;;13.12;54.83;101379.31;6110759;23;7405;-76
2022/03/15 10:13:19;;;;;;;;;;;;;;;13.24;53.91;101388.50;6112150;23;6779;-76
2022/03/15 10:15:59;;;;;;;;;;;;;;;13.36;54.16;101384.00;6112586;23;6782;-76
2022/03/15 10:18:25;;;;;;;;;;;;;;;13.46;53.61;101375.97;6113510;23;7416;-76
2022/03/15 10:20:51;;;;;;;;;;;;;;;13.54;54.26;101371.22;6114401;23;6979;-76
2022/03/15 10:23:19;;;;;;;;;;;;;;;13.64;53.50;101382.00;6138637;23;6946;-76
2022/03/15 10:25:53;;;;;;;;;;;;;;;13.67;53.76;101375.31;6114019;23;6787;-76
2022/03/15 10:28:20;;;;;;;;;;;;;;;13.68;53.25;101366.78;6065706;23;6959;-76
2022/03/15 10:30:47;;;;;;;;;;;;;;;13.69;53.11;101363.38;6088202;23;6986;-76
2022/03/15 10:33:16;;;;;;;;;;;;;;;13.70;53.62;101361.72;6088855;23;6858;-76
2022/03/15 10:35:48;;;;;;;;;;;;;;;13.71;53.84;101360.91;6112395;23;7164;-76
2022/03/15 10:38:14;;;;;;;;;;;;;;;13.72;53.63;101368.72;6113921;23;6933;-76
2022/03/15 10:40:48;;;;;;;;;;;;;;;13.72;53.76;101368.72;6113508;23;7216;-76
2022/03/15 10:43:24;;;;;;;;;;;;;;;13.69;54.12;101363.38;6112947;23;6782;-76
2022/03/15 10:45:57;;;;;;;;;;;;;;;13.69;53.89;101358.22;6110736;23;6779;-76
2022/03/15 10:48:32;;;;;;;;;;;;;;;13.67;53.58;101357.28;6114876;23;7106;-76
2022/03/15 10:51:11;;;;;;;;;;;;;;;13.67;53.66;101364.13;6113990;23;6774;-76
2022/03/15 10:53:47;;;;;;;;;;;;;;;13.66;54.52;101357.19;6113378;23;6824;-76
2022/03/15 10:56:23;;;;;;;;;;;;;;;13.64;54.66;101354.56;6114211;23;6961;-77
2022/03/15 10:59:00;;;;;;;;;;;;;;;13.60;54.30;101350.03;6115517;23;7058;-77
2022/03/15 11:01:34;;;;;;;;;;;;;;;13.57;54.77;101361.09;6088761;23;6982;-77
2022/03/15 11:04:10;;;;;;;;;;;;;;;13.54;54.61;101352.31;6114325;23;7018;-77
2022/03/15 11:06:44;;;;;;;;;;;;;;;13.51;54.15;101347.00;6114612;23;7055;-77
2022/03/15 11:09:24;;;;;;;;;;;;;;;13.42;54.24;101345.72;6136165;23;6892;-77
2022/03/15 11:12:06;;;;;;;;;;;;;;;13.36;54.43;101341.91;6112377;23;6949;-77
2022/03/15 11:14:47;;;;;;;;;;;;;;;13.32;54.49;101340.84;6114829;23;7904;-77
2022/03/15 11:17:20;;;;;;;;;;;;;;;13.30;54.64;101337.31;6115168;23;6957;-77
2022/03/15 11:19:59;;;;;;;;;;;;;;;13.32;54.87;101336.59;6112972;23;7014;-76
2022/03/15 11:22:30;;;;;;;;;;;;;;;13.39;55.96;101336.94;6112938;23;6782;-77
2022/03/15 11:25:14;;;;;;;;;;;;;;;13.46;55.52;101329.63;6113519;23;6775;-76
2022/03/15 11:27:44;;;;;;;;;;;;;;;13.58;55.45;101323.31;6137379;23;6846;-77
2022/03/15 11:30:19;;;;;;;;;;;;;;;13.64;55.96;101317.59;6113248;23;6790;-77
2022/03/15 11:32:47;;;;;;;;;;;;;;;13.67;55.84;101318.63;6112668;23;6870;-77
2022/03/15 11:35:18;;;;;;;;;;;;;;;13.72;55.73;101306.88;6110846;23;6949;-77
2022/03/15 11:37:44;;;;;;;;;;;;;;;13.78;56.00;101301.16;6113583;23;6779;-77
2022/03/15 11:40:12;;;;;;;;;;;;;;;13.83;55.64;101296.22;6113692;23;6842;-77
2022/03/15 11:42:49;;;;;;;;;;;;;;;13.87;55.21;101304.19;6113352;23;7028;-76
2022/03/15 11:45:32;;;;;;;;;;;;;;;13.93;55.34;101298.44;6112946;23;7142;-76
2022/03/15 11:48:10;;;;;;;;;;;;;;;13.92;55.45;101291.50;6112700;23;6806;-76
2022/03/15 11:50:55;;;;;;;;;;;;;;;13.87;55.89;101283.56;6114284;23;7090;-76
2022/03/15 11:53:40;;;;;;;;;;;;;;;13.86;55.48;101276.63;6113800;23;7018;-76
2022/03/15 11:56:33;;;;;;;;;;;;;;;13.89;56.44;101274.19;6114406;23;6771;-76
2022/03/15 11:59:00;;;;;;;;;;;;;;;13.94;55.79;101269.28;6111303;23;6775;-76
2022/03/15 12:01:28;;;;;;;;;;;;;;;14.02;56.21;101265.38;6085346;23;6947;-76
2022/03/15 12:03:58;;;;;;;;;;;;;;;14.11;55.53;101264.03;6088393;23;6775;-76
2022/03/15 12:06:30;;;;;;;;;;;;;;;14.21;56.50;101255.94;6115475;23;7015;-76
2022/03/15 12:08:59;;;;;;;;;;;;;;;14.32;55.72;101248.69;6111983;23;7149;-76
2022/03/15 12:11:37;;;;;;;;;;;;;;;14.46;55.86;101251.03;6086832;23;6953;-76
2022/03/15 12:14:17;;;;;;;;;;;;;;;14.60;55.88;101243.91;6112779;23;7217;-76
2022/03/15 12:16:48;;;;;;;;;;;;;;;14.75;56.22;101234.28;6089170;23;6849;-76
2022/03/15 12:19:35;;;;;;;;;;;;;;;14.92;55.85;101229.00;6113077;23;7252;-76
2022/03/15 12:22:09;;;;;;;;;;;;;;;15.09;55.50;101219.38;6112110;23;6951;-76
2022/03/15 12:24:46;;;;;;;;;;;;;;;15.28;55.66;101221.06;6113824;23;6914;-76
2022/03/15 12:27:20;;;;;;;;;;;;;;;15.46;54.72;101217.47;6113992;23;6883;-76
2022/03/15 12:29:52;;;;;;;;;;;;;;;15.67;54.67;101212.28;6088546;23;6974;-76
2022/03/15 12:32:18;;;;;;;;;;;;;;;15.88;54.82;101214.84;6113058;23;6853;-76
2022/03/15 12:34:49;;;;;;;;;;;;;;;16.04;54.14;101225.81;6110750;23;7036;-76
2022/03/15 12:37:27;;;;;;;;;;;;;;;16.17;53.83;101219.41;6114106;23;7065;-76
2022/03/15 12:39:55;;;;;;;;;;;;;;;16.28;53.54;101212.06;6113343;23;7064;-76
2022/03/15 12:42:24;;;;;;;;;;;;;;;16.35;52.97;101207.16;6112794;23;6782;-76
2022/03/15 12:44:55;;;;;;;;;;;;;;;16.40;52.74;101198.69;6112394;23;6779;-76
2022/03/15 12:47:27;;;;;;;;;;;;;;;16.41;52.50;101196.16;6112258;23;7336;-77
2022/03/15 12:50:12;;;;;;;;;;;;;;;16.41;52.24;101190.13;6111588;23;6860;-77
2022/03/15 12:53:15;;;;;;;;;;;;;;;16.39;52.82;101182.28;6110981;23;7023;-77